Terminal Aerodrome Forecast
Issued by NWS

Home | Current Version | Previous Version | Text Only | Print | Product List | Glossary On
Versions: 1 2 3 4 5 6 7 8 9 10 11 12 13 14 15 16 17
000
FTUS41 KBGM 180309 AAA
TAFELM
TAF AMD
KELM 180309Z 1803/1824 VRB02KT P6SM SCT008 OVC013
      TEMPO 1803/1806 3SM -DZ BR OVC008
     FM180600 VRB02KT 2SM -DZ BR OVC008
     FM181500 29005KT P6SM -DZ OVC012=

USA.gov is the U.S. government's official web portal to all federal, state and local government web resources and services.